createdAt,value
2018-12-06T00:00:41.790Z,10.63
2018-12-06T00:03:10.131Z,12.17
2018-12-06T00:05:38.379Z,10.17
2018-12-06T00:08:15.016Z,10.13
2018-12-06T00:10:43.464Z,10.60
2018-12-06T00:13:11.843Z,10.67
2018-12-06T00:15:40.336Z,13.57
2018-12-06T00:18:08.968Z,11.07
2018-12-06T00:20:37.235Z,12.33
2018-12-06T00:23:06.723Z,12.00
2018-12-06T00:25:35.076Z,10.83
2018-12-06T00:28:03.425Z,12.93
2018-12-06T00:30:36.460Z,12.10
2018-12-06T00:33:05.607Z,13.47
2018-12-06T00:35:33.928Z,12.17
2018-12-06T00:38:02.182Z,11.50
2018-12-06T00:40:30.524Z,11.67
2018-12-06T00:42:58.864Z,14.57
2018-12-06T00:45:27.192Z,12.13
2018-12-06T00:47:55.471Z,12.10
2018-12-06T00:50:23.713Z,12.57
2018-12-06T00:52:52.172Z,12.10
2018-12-06T00:55:20.524Z,12.80
2018-12-06T00:57:48.772Z,14.23
2018-12-06T01:00:17.204Z,15.07
2018-12-06T01:02:45.684Z,15.13
2018-12-06T01:05:14.024Z,14.93
2018-12-06T01:07:42.368Z,15.17
2018-12-06T01:10:10.848Z,16.13
2018-12-06T01:12:39.120Z,15.07
2018-12-06T01:15:07.692Z,15.10
2018-12-06T01:17:42.432Z,16.70
2018-12-06T01:20:10.784Z,13.03
2018-12-06T01:22:39.104Z,14.63
2018-12-06T01:25:07.456Z,15.70
2018-12-06T01:27:35.720Z,16.77
2018-12-06T01:30:04.993Z,12.40
2018-12-06T01:32:33.257Z,13.73
2018-12-06T01:35:01.508Z,14.53
2018-12-06T01:37:29.817Z,15.57
2018-12-06T01:39:58.122Z,16.40
2018-12-06T01:42:26.382Z,16.77
2018-12-06T01:44:54.728Z,13.83
2018-12-06T01:47:23.085Z,13.77
2018-12-06T01:49:51.328Z,16.93
2018-12-06T01:52:19.604Z,15.27
2018-12-06T01:54:47.848Z,16.40
2018-12-06T01:57:16.105Z,16.20
2018-12-06T01:59:44.540Z,14.77
2018-12-06T02:02:12.828Z,16.20
2018-12-06T02:04:41.100Z,14.93
2018-12-06T02:07:09.368Z,13.27
2018-12-06T02:09:37.624Z,16.20
2018-12-06T02:12:05.872Z,15.23
2018-12-06T02:14:34.207Z,14.73
2018-12-06T02:17:02.455Z,13.60
2018-12-06T02:19:30.716Z,14.27
2018-12-06T02:21:59.019Z,12.90
2018-12-06T02:24:27.279Z,18.73
2018-12-06T02:26:55.546Z,12.80
2018-12-06T02:29:25.793Z,18.43
2018-12-06T02:31:54.032Z,16.83
2018-12-06T02:34:22.301Z,17.50
2018-12-06T02:36:50.566Z,14.07
2018-12-06T02:39:18.813Z,15.83
2018-12-06T02:41:47.214Z,17.50
2018-12-06T02:44:15.452Z,17.20
2018-12-06T02:46:43.732Z,15.20
2018-12-06T02:49:12.026Z,16.70
2018-12-06T02:51:40.417Z,15.63
2018-12-06T02:54:08.768Z,14.53
2018-12-06T02:56:37.068Z,15.87
2018-12-06T02:59:05.313Z,18.40
2018-12-06T03:01:33.623Z,16.57
2018-12-06T03:04:01.905Z,17.90
2018-12-06T03:06:30.333Z,15.83
2018-12-06T03:08:58.725Z,17.57
2018-12-06T03:11:26.997Z,18.67
2018-12-06T03:13:55.241Z,16.60
2018-12-06T03:16:23.488Z,16.27
2018-12-06T03:18:51.821Z,17.33
2018-12-06T03:21:20.069Z,19.33
2018-12-06T03:23:48.337Z,17.10
2018-12-06T03:26:16.641Z,18.17
2018-12-06T03:28:44.951Z,15.97
2018-12-06T03:31:13.223Z,18.20
2018-12-06T03:33:41.496Z,17.17
2018-12-06T03:36:09.749Z,15.97
2018-12-06T03:38:38.023Z,16.03
2018-12-06T03:41:06.590Z,16.57
2018-12-06T03:43:34.834Z,18.93
2018-12-06T03:46:03.174Z,18.97
2018-12-06T03:48:31.471Z,17.53
2018-12-06T03:50:59.730Z,16.73
2018-12-06T03:53:27.989Z,14.43
2018-12-06T03:55:56.269Z,17.30
2018-12-06T03:58:24.674Z,16.87
2018-12-06T04:00:52.970Z,18.13
2018-12-06T04:03:21.231Z,16.33
2018-12-06T04:05:49.481Z,17.00
2018-12-06T04:08:17.747Z,17.83
2018-12-06T04:10:46.019Z,17.57
2018-12-06T04:13:14.279Z,18.17
2018-12-06T04:15:42.594Z,17.93
2018-12-06T04:18:10.882Z,20.10
2018-12-06T04:20:39.140Z,19.43
2018-12-06T04:23:07.399Z,20.23
2018-12-06T04:25:35.657Z,21.63
2018-12-06T04:28:03.983Z,18.00
2018-12-06T04:30:32.243Z,20.87
2018-12-06T04:33:00.523Z,20.97
2018-12-06T04:35:28.769Z,19.50
2018-12-06T04:37:57.017Z,19.37
2018-12-06T04:40:25.272Z,19.67
2018-12-06T04:42:53.729Z,21.93
2018-12-06T04:45:21.976Z,22.87
2018-12-06T04:47:50.252Z,23.13
2018-12-06T04:50:18.516Z,21.20
2018-12-06T04:52:46.773Z,20.83
2018-12-06T04:55:15.028Z,23.63
2018-12-06T04:57:43.276Z,38.80
2018-12-06T05:00:11.621Z,39.80
2018-12-06T05:02:39.876Z,30.77
2018-12-06T05:05:08.221Z,32.73
2018-12-06T05:07:36.460Z,22.70
2018-12-06T05:10:05.333Z,25.27
2018-12-06T05:12:33.576Z,22.87
2018-12-06T05:15:01.840Z,29.60
2018-12-06T05:17:30.083Z,21.73
2018-12-06T05:19:58.561Z,28.87
2018-12-06T05:22:26.825Z,25.10
2018-12-06T05:24:55.096Z,29.27
2018-12-06T05:27:23.376Z,28.43
2018-12-06T05:29:51.592Z,30.47
2018-12-06T05:32:19.844Z,26.10
2018-12-06T05:34:48.201Z,33.37
2018-12-06T05:37:16.492Z,26.13
2018-12-06T05:39:44.776Z,29.60
2018-12-06T05:42:13.006Z,29.80
2018-12-06T05:44:41.268Z,25.10
2018-12-06T05:47:09.515Z,26.10
2018-12-06T05:49:37.799Z,27.43
2018-12-06T05:52:06.058Z,28.10
2018-12-06T05:54:34.390Z,25.67
2018-12-06T05:57:02.664Z,26.67
2018-12-06T05:59:30.922Z,27.77
2018-12-06T06:01:59.177Z,30.33
2018-12-06T06:04:30.354Z,32.63
2018-12-06T06:07:01.941Z,35.97
2018-12-06T06:09:30.678Z,34.27
2018-12-06T06:11:58.950Z,35.07
2018-12-06T06:14:27.238Z,31.63
2018-12-06T06:16:55.509Z,36.17
2018-12-06T06:19:23.910Z,31.73
2018-12-06T06:21:53.222Z,28.93
2018-12-06T06:24:22.966Z,32.23
2018-12-06T06:26:51.393Z,27.37
2018-12-06T06:29:20.570Z,29.63
2018-12-06T06:31:49.669Z,28.17
2018-12-06T06:34:19.129Z,29.70
2018-12-06T06:36:48.742Z,32.83
2018-12-06T06:39:17.374Z,31.03
2018-12-06T06:41:46.218Z,28.37
2018-12-06T06:44:15.802Z,30.60
2018-12-06T06:46:44.578Z,28.40
2018-12-06T06:49:15.286Z,28.63
2018-12-06T06:51:44.758Z,27.73
2018-12-06T06:54:13.574Z,30.60
2018-12-06T06:56:42.486Z,28.00
2018-12-06T06:59:11.963Z,30.63
2018-12-06T07:01:40.818Z,29.60
2018-12-06T07:04:09.503Z,27.10
2018-12-06T07:06:38.335Z,27.70
2018-12-06T07:09:09.087Z,30.37
2018-12-06T07:11:37.703Z,29.43
2018-12-06T07:14:06.455Z,33.80
2018-12-06T07:16:37.743Z,33.53
2018-12-06T07:19:06.726Z,30.93
2018-12-06T07:21:36.377Z,30.73
2018-12-06T07:24:05.206Z,30.00
2018-12-06T07:26:34.297Z,32.20
2018-12-06T07:29:02.871Z,33.60
2018-12-06T07:31:33.543Z,31.90
2018-12-06T07:34:08.776Z,36.60
2018-12-06T07:36:37.335Z,36.77
2018-12-06T07:39:08.199Z,35.03
2018-12-06T07:41:38.755Z,35.23
2018-12-06T07:44:07.459Z,38.20
2018-12-06T07:46:37.971Z,36.97
2018-12-06T07:49:06.939Z,37.67
2018-12-06T07:51:36.635Z,38.30
2018-12-06T07:54:14.026Z,36.93
2018-12-06T08:58:43.624Z,56.80
2018-12-06T09:01:32.083Z,75.97
2018-12-06T09:04:05.168Z,68.53
2018-12-06T09:06:42.551Z,71.83
2018-12-06T09:09:15.740Z,68.37
2018-12-06T09:11:44.832Z,74.53
2018-12-06T09:14:16.694Z,71.13
2018-12-06T09:16:46.604Z,61.70
2018-12-06T09:19:16.197Z,65.40
2018-12-06T09:21:47.868Z,63.67
2018-12-06T09:24:26.484Z,64.83
2018-12-06T09:27:07.253Z,57.33
2018-12-06T09:32:27.764Z,58.17
2018-12-06T09:34:59.828Z,51.27
2018-12-06T09:37:42.352Z,53.00
2018-12-06T09:40:18.108Z,52.40
2018-12-06T09:43:13.817Z,50.40
2018-12-06T09:45:49.464Z,52.17
2018-12-06T09:48:21.417Z,51.43
2018-12-06T09:52:36.293Z,48.63
2018-12-06T09:55:06.413Z,47.97
2018-12-06T09:57:37.733Z,50.70
2018-12-06T10:00:15.561Z,43.53
2018-12-06T10:02:48.216Z,41.23
2018-12-06T10:05:21.648Z,38.53
2018-12-06T10:08:00.869Z,42.37
2018-12-06T10:10:32.112Z,40.37
2018-12-06T10:13:09.094Z,36.20
2018-12-06T10:15:41.053Z,38.50
2018-12-06T10:18:11.116Z,39.17
2018-12-06T10:20:40.229Z,43.10
2018-12-06T10:23:09.979Z,41.57
2018-12-06T10:25:39.669Z,48.33
2018-12-06T10:28:08.924Z,46.93
2018-12-06T10:30:38.797Z,46.67
2018-12-06T10:33:08.708Z,52.60
2018-12-06T10:35:38.576Z,51.67
2018-12-06T10:38:08.277Z,51.20
2018-12-06T10:40:39.145Z,50.63
2018-12-06T10:43:07.922Z,57.00
2018-12-06T10:45:38.321Z,56.57
2018-12-06T10:48:08.165Z,59.80
2018-12-06T10:50:38.105Z,50.60
2018-12-06T10:53:08.022Z,60.13
2018-12-06T10:55:37.309Z,56.17
2018-12-06T10:58:07.001Z,58.77
2018-12-06T11:01:08.893Z,52.10
2018-12-06T11:03:46.382Z,58.90
2018-12-06T11:06:17.422Z,55.93
2018-12-06T11:08:48.938Z,52.13
2018-12-06T11:11:18.122Z,56.90
2018-12-06T11:13:47.326Z,52.60
2018-12-06T11:16:18.097Z,59.57
2018-12-06T11:18:47.379Z,57.87
2018-12-06T11:21:17.112Z,58.27
2018-12-06T11:23:47.671Z,53.10
2018-12-06T11:26:17.040Z,54.07
2018-12-06T11:28:49.490Z,51.97
2018-12-06T11:31:20.042Z,53.50
2018-12-06T11:33:51.186Z,47.57
2018-12-06T11:36:20.897Z,48.80
2018-12-06T11:38:54.907Z,47.10
2018-12-06T11:41:24.461Z,51.87
2018-12-06T11:43:54.116Z,46.67
2018-12-06T11:46:22.457Z,45.13
2018-12-06T11:48:50.728Z,41.60
2018-12-06T11:51:19.020Z,45.27
2018-12-06T11:53:47.296Z,40.17
2018-12-06T11:56:15.588Z,37.73
2018-12-06T11:58:43.868Z,37.03
2018-12-06T12:01:12.246Z,38.30
2018-12-06T12:03:40.606Z,34.13
2018-12-06T12:06:08.909Z,33.27
2018-12-06T12:08:37.177Z,31.00
2018-12-06T12:11:05.477Z,33.13
2018-12-06T12:13:33.869Z,33.77
2018-12-06T12:16:02.746Z,28.90
2018-12-06T12:18:31.198Z,24.77
2018-12-06T12:20:59.508Z,26.30
2018-12-06T12:23:27.835Z,27.63
2018-12-06T12:25:56.104Z,23.93
2018-12-06T12:28:24.456Z,24.63
2018-12-06T12:30:52.723Z,23.70
2018-12-06T12:33:21.034Z,26.20
2018-12-06T12:35:49.407Z,25.83
2018-12-06T12:38:17.686Z,26.63
2018-12-06T12:40:45.982Z,25.20
2018-12-06T12:43:14.222Z,25.53
2018-12-06T12:45:42.513Z,25.13
2018-12-06T12:48:10.805Z,25.23
2018-12-06T12:50:39.086Z,24.37
2018-12-06T12:53:07.486Z,22.73
2018-12-06T12:55:35.762Z,21.47
2018-12-06T12:58:04.659Z,18.70
2018-12-06T13:00:33.017Z,19.37
2018-12-06T13:03:01.262Z,16.60
2018-12-06T13:05:31.016Z,18.63
2018-12-06T13:07:59.586Z,16.57
2018-12-06T13:10:27.861Z,16.80
2018-12-06T13:12:56.302Z,15.80
2018-12-06T13:15:24.562Z,17.53
2018-12-06T13:17:52.822Z,17.67
2018-12-06T13:20:21.110Z,16.07
2018-12-06T13:22:49.374Z,18.80
2018-12-06T13:25:17.690Z,19.00
2018-12-06T13:27:45.968Z,22.20
2018-12-06T13:30:14.405Z,22.40
2018-12-06T13:32:42.670Z,24.20
2018-12-06T13:35:11.018Z,23.50
2018-12-06T13:37:39.285Z,23.97
2018-12-06T13:40:07.642Z,26.00
2018-12-06T13:42:35.892Z,24.13
2018-12-06T13:45:04.646Z,25.90
2018-12-06T13:47:32.930Z,24.70
2018-12-06T13:50:01.204Z,27.23
2018-12-06T13:52:29.458Z,25.73
2018-12-06T13:54:57.747Z,27.13
2018-12-06T13:57:26.013Z,27.33
2018-12-06T13:59:54.286Z,27.90
2018-12-06T14:02:22.887Z,26.17
2018-12-06T14:04:51.143Z,26.43
2018-12-06T14:07:19.501Z,25.50
2018-12-06T14:09:47.755Z,26.73
2018-12-06T14:12:16.003Z,24.53
2018-12-06T14:14:44.275Z,25.00
2018-12-06T14:17:12.671Z,26.10
2018-12-06T14:19:41.027Z,22.03
2018-12-06T14:22:09.299Z,23.77
2018-12-06T14:24:37.595Z,22.13
2018-12-06T14:27:05.838Z,23.63
2018-12-06T14:29:34.087Z,27.90
2018-12-06T14:32:02.427Z,25.67
2018-12-06T14:34:30.668Z,26.70
2018-12-06T14:37:02.189Z,23.17
2018-12-06T14:39:29.251Z,24.50
2018-12-06T14:41:57.631Z,24.33
2018-12-06T14:44:25.932Z,23.70
2018-12-06T14:46:54.250Z,25.40
2018-12-06T14:49:22.531Z,25.03
2018-12-06T14:51:50.816Z,25.93
2018-12-06T14:54:20.249Z,23.67
2018-12-06T14:56:48.569Z,23.33
2018-12-06T14:59:16.828Z,23.53
2018-12-06T15:01:45.216Z,23.60
2018-12-06T15:04:13.492Z,25.30
2018-12-06T15:06:41.763Z,27.83
2018-12-06T15:09:10.056Z,24.37
2018-12-06T15:11:38.448Z,25.77
2018-12-06T15:14:06.738Z,25.93
2018-12-06T15:16:35.056Z,25.03
2018-12-06T15:19:03.388Z,24.63
2018-12-06T15:21:31.672Z,24.80
2018-12-06T15:23:59.953Z,28.77
2018-12-06T15:26:28.224Z,24.70
2018-12-06T15:28:56.520Z,24.03
2018-12-06T15:31:24.784Z,25.73
2018-12-06T15:33:53.092Z,25.00
2018-12-06T15:36:21.364Z,23.63
2018-12-06T15:38:49.641Z,26.27
2018-12-06T15:41:17.948Z,22.97
2018-12-06T15:43:46.239Z,22.60
2018-12-06T15:46:14.660Z,22.53
2018-12-06T15:48:42.945Z,23.23
2018-12-06T15:51:11.240Z,25.07
2018-12-06T15:53:39.669Z,27.53
2018-12-06T15:56:07.912Z,20.53
2018-12-06T15:58:36.233Z,24.17
2018-12-06T16:01:04.524Z,25.17
2018-12-06T16:03:32.837Z,24.03
2018-12-06T16:06:01.113Z,25.23
2018-12-06T16:08:29.509Z,24.07
2018-12-06T16:10:58.021Z,25.83
2018-12-06T16:13:26.272Z,26.73
2018-12-06T16:15:54.561Z,25.63
2018-12-06T16:18:22.820Z,26.90
2018-12-06T16:20:51.089Z,27.20
2018-12-06T16:23:19.456Z,25.27
2018-12-06T16:25:47.717Z,31.10
2018-12-06T16:28:16.073Z,27.20
2018-12-06T16:30:44.369Z,28.17
2018-12-06T16:33:12.661Z,27.57
2018-12-06T16:35:40.913Z,32.03
2018-12-06T16:38:09.177Z,26.47
2018-12-06T16:40:37.437Z,30.23
2018-12-06T16:43:05.814Z,27.73
2018-12-06T16:45:34.105Z,27.43
2018-12-06T16:48:02.388Z,27.70
2018-12-06T16:50:30.642Z,23.00
2018-12-06T16:52:58.905Z,40.77
2018-12-06T16:55:27.329Z,30.80
2018-12-06T16:57:55.692Z,29.13
2018-12-06T17:00:24.065Z,32.40
2018-12-06T17:02:52.397Z,24.27
2018-12-06T17:05:20.837Z,27.70
2018-12-06T17:07:49.277Z,28.17
2018-12-06T17:10:17.762Z,27.60
2018-12-06T17:12:46.005Z,26.43
2018-12-06T17:15:14.411Z,28.30
2018-12-06T17:17:42.681Z,25.80
2018-12-06T17:20:10.997Z,27.13
2018-12-06T17:22:39.333Z,21.97
2018-12-06T17:25:07.909Z,25.20
2018-12-06T17:27:36.261Z,23.93
2018-12-06T17:30:05.380Z,25.47
2018-12-06T17:32:33.749Z,24.53
2018-12-06T17:35:02.022Z,23.07
2018-12-06T17:37:30.298Z,25.63
2018-12-06T17:39:58.617Z,26.57
2018-12-06T17:42:26.871Z,24.33
2018-12-06T17:44:55.130Z,23.80
2018-12-06T17:47:23.382Z,23.90
2018-12-06T17:49:51.646Z,26.13
2018-12-06T17:52:20.006Z,23.30
2018-12-06T17:54:48.250Z,27.07
2018-12-06T17:57:16.802Z,27.60
2018-12-06T17:59:45.154Z,24.90
